Time;durP1;ratioP1;P1;durP2;ratioP2;P2;SDS_P1;SDS_P2;PMS_P1;PMS_P2;Temp;Humidity;BMP_temperature;BMP_pressure;BME280_temperature;BME280_humidity;BME280_pressure;Samples;Min_cycle;Max_cycle;Signal;HPM_P1;HPM_P2
2023/08/26 00:00:02;;;;;;;5.72;3.92;;;19.70;99.90;;;20.01;100.00;100373.06;5268020;28;20066;-52
2023/08/26 00:02:44;;;;;;;6.57;3.95;;;19.70;99.90;;;20.00;100.00;100361.63;5281588;28;20052;-51
2023/08/26 00:05:16;;;;;;;7.00;3.63;;;19.70;99.90;;;20.01;100.00;100370.41;5263839;28;20511;-51
2023/08/26 00:07:49;;;;;;;6.05;3.80;;;19.70;99.90;;;20.01;100.00;100370.41;5258999;28;20716;-52
2023/08/26 00:10:21;;;;;;;6.40;3.83;;;19.70;99.90;;;19.98;100.00;100367.81;5264377;28;20052;-52
2023/08/26 00:12:54;;;;;;;8.00;4.40;;;19.70;99.90;;;19.94;100.00;100360.81;5261977;28;20609;-52
2023/08/26 00:15:26;;;;;;;7.93;4.30;;;19.60;99.90;;;19.89;100.00;100363.50;5256706;28;20047;-51
2023/08/26 00:18:00;;;;;;;7.28;4.05;;;19.60;99.90;;;19.88;100.00;100374.09;5252905;28;20135;-52
2023/08/26 00:20:33;;;;;;;6.40;4.15;;;19.60;99.90;;;19.87;100.00;100388.22;5264952;28;20047;-52
2023/08/26 00:23:05;;;;;;;6.43;3.75;;;19.60;99.90;;;19.87;100.00;100381.16;5250538;28;20051;-51
2023/08/26 00:25:37;;;;;;;8.63;4.78;;;19.60;99.90;;;19.85;100.00;100368.84;5247447;28;20050;-52
2023/08/26 00:28:10;;;;;;;10.55;5.57;;;19.50;99.90;;;19.75;100.00;100371.56;5254385;28;20513;-51
2023/08/26 00:30:43;;;;;;;10.05;5.07;;;19.40;99.90;;;19.68;100.00;100379.56;5262400;28;20134;-52
2023/08/26 00:33:17;;;;;;;6.10;3.95;;;19.40;99.90;;;19.69;100.00;100387.50;5259549;28;20036;-51
2023/08/26 00:35:49;;;;;;;6.45;4.05;;;19.40;99.90;;;19.71;100.00;100390.13;5254141;28;20052;-52
2023/08/26 00:38:22;;;;;;;6.55;3.72;;;19.40;99.90;;;19.74;100.00;100390.97;5272114;28;20074;-53
2023/08/26 00:40:54;;;;;;;7.82;4.38;;;19.50;99.90;;;19.74;100.00;100398.91;5248539;28;20047;-51
2023/08/26 00:43:28;;;;;;;14.48;7.00;;;19.40;99.90;;;19.72;100.00;100403.34;5257179;28;20512;-55
2023/08/26 00:46:01;;;;;;;8.50;4.72;;;19.40;99.90;;;19.67;100.00;100404.25;5258351;28;20392;-57
2023/08/26 00:48:35;;;;;;;7.30;3.97;;;19.40;99.90;;;19.64;100.00;100410.47;5253193;28;20047;-56
2023/08/26 00:51:08;;;;;;;;;;;19.30;99.90;;;19.62;100.00;100417.50;5256765;28;20044;-55
2023/08/26 00:53:40;;;;;;;6.90;3.05;;;19.30;99.90;;;19.65;100.00;100411.34;5258679;28;20368;-55
2023/08/26 00:56:16;;;;;;;5.55;3.10;;;19.30;99.90;;;19.65;100.00;100430.72;5258265;28;20040;-55
2023/08/26 00:58:48;;;;;;;4.30;2.83;;;19.30;99.90;;;19.64;100.00;100428.97;5265699;28;20058;-54
2023/08/26 01:01:21;;;;;;;3.80;2.63;;;19.30;99.90;;;19.64;100.00;100431.63;5254705;28;20122;-55
2023/08/26 01:03:55;;;;;;;5.63;2.80;;;19.30;99.90;;;19.66;100.00;100440.41;5258831;28;20036;-54
2023/08/26 01:06:30;;;;;;;4.30;2.90;;;19.30;99.90;;;19.64;100.00;100425.44;5255287;28;20044;-58
2023/08/26 01:09:03;;;;;;;3.63;2.35;;;19.30;99.90;;;19.63;100.00;100429.88;5279978;28;20059;-55
2023/08/26 01:11:43;;;;;;;4.10;2.60;;;19.30;99.90;;;19.61;100.00;100434.25;5261923;28;20043;-53
2023/08/26 01:14:23;;;;;;;3.20;2.10;;;19.30;99.90;;;19.59;100.00;100433.41;5262192;28;20425;-51
2023/08/26 01:16:56;;;;;;;4.18;2.17;;;19.30;99.90;;;19.56;100.00;100438.69;5260383;28;20051;-51
2023/08/26 01:19:37;;;;;;;3.72;1.90;;;19.30;99.90;;;19.54;100.00;100445.75;5261179;28;20048;-52
2023/08/26 01:22:11;;;;;;;2.20;1.92;;;19.30;99.90;;;19.51;100.00;100445.78;5254300;28;20047;-51
2023/08/26 01:24:45;;;;;;;3.15;2.00;;;19.20;99.90;;;19.49;100.00;100453.69;5260603;28;20043;-52
2023/08/26 01:27:17;;;;;;;3.65;1.90;;;19.20;99.90;;;19.47;100.00;100451.97;5257508;28;20043;-52
2023/08/26 01:29:49;;;;;;;4.38;2.17;;;19.20;99.90;;;19.43;100.00;100448.47;5256011;28;20048;-52
2023/08/26 01:32:36;;;;;;;4.13;2.00;;;19.10;99.90;;;19.38;100.00;100442.34;5257821;28;20142;-52
2023/08/26 01:35:18;;;;;;;2.72;1.80;;;19.10;99.90;;;19.35;100.00;100441.47;5265652;28;20047;-52
2023/08/26 01:37:52;;;;;;;3.33;1.70;;;19.00;99.90;;;19.33;100.00;100451.19;5251616;28;20043;-53
2023/08/26 01:40:30;;;;;;;3.33;2.10;;;19.00;99.90;;;19.31;100.00;100443.28;5261957;28;20460;-52
2023/08/26 01:43:04;;;;;;;2.67;1.73;;;19.00;99.90;;;19.29;100.00;100449.44;5275883;28;20518;-53
2023/08/26 01:45:37;;;;;;;2.80;1.63;;;19.00;99.90;;;19.25;100.00;100446.84;5259830;28;20161;-52
2023/08/26 01:48:15;;;;;;;2.30;1.50;;;19.00;99.90;;;19.24;100.00;100447.72;5259380;28;20044;-55
2023/08/26 01:50:47;;;;;;;2.92;1.42;;;18.90;99.90;;;19.20;100.00;100445.97;5259617;28;20047;-55
2023/08/26 01:53:19;;;;;;;2.55;1.70;;;18.90;99.90;;;19.17;100.00;100443.38;5262830;28;20076;-53
2023/08/26 01:55:53;;;;;;;3.17;1.50;;;18.90;99.90;;;19.14;100.00;100431.91;5257735;28;20127;-52
2023/08/26 01:58:26;;;;;;;2.25;1.50;;;18.80;99.90;;;19.11;100.00;100440.75;5259017;28;20051;-52
2023/08/26 02:00:59;;;;;;;3.72;1.75;;;18.80;99.90;;;19.05;100.00;100443.44;5270997;28;20067;-53
2023/08/26 02:03:32;;;;;;;2.78;1.70;;;18.80;99.90;;;19.00;100.00;100439.94;5255357;28;20131;-52
2023/08/26 02:06:05;;;;;;;4.32;1.80;;;18.70;99.90;;;18.95;100.00;100458.44;5258954;28;20042;-54
2023/08/26 02:08:37;;;;;;;3.10;1.77;;;18.70;99.90;;;18.90;100.00;100454.03;5252068;28;20043;-52
2023/08/26 02:11:11;;;;;;;4.50;2.15;;;18.70;99.90;;;18.76;100.00;100464.66;5259156;28;20058;-51
2023/08/26 02:13:43;;;;;;;3.85;2.00;;;18.50;99.90;;;18.65;100.00;100466.47;5248199;28;20435;-53
2023/08/26 02:16:16;;;;;;;4.22;2.60;;;18.40;99.90;;;18.58;100.00;100467.34;5263772;28;20418;-51
2023/08/26 02:18:48;;;;;;;2.67;1.67;;;18.30;99.90;;;18.51;100.00;100469.13;5257494;28;20040;-51
2023/08/26 02:21:20;;;;;;;4.13;1.90;;;18.30;99.90;;;18.43;100.00;100476.19;5280425;28;20043;-52
2023/08/26 02:23:53;;;;;;;3.92;1.65;;;18.20;99.90;;;18.37;100.00;100481.47;5265532;28;20074;-54
2023/08/26 02:26:27;;;;;;;4.88;2.10;;;18.10;99.90;;;18.31;100.00;100482.34;5264641;28;20039;-52
2023/08/26 02:29:00;;;;;;;;;;;18.10;99.90;;;18.20;100.00;100481.50;5273535;28;20198;-53
2023/08/26 02:31:32;;;;;;;3.88;1.85;;;18.00;99.90;;;18.11;100.00;100485.03;5263866;28;20665;-52
2023/08/26 02:34:04;;;;;;;4.95;1.80;;;17.90;99.90;;;18.04;100.00;100496.47;5278823;28;20083;-52
2023/08/26 02:36:37;;;;;;;2.47;1.52;;;17.80;99.90;;;18.00;100.00;100499.13;5258796;28;20039;-51
2023/08/26 02:39:09;;;;;;;5.32;1.85;;;17.80;99.90;;;17.97;100.00;100507.00;5247967;28;20044;-53
2023/08/26 02:41:43;;;;;;;3.38;1.70;;;17.70;99.90;;;17.96;100.00;100514.03;5263860;28;20118;-54
2023/08/26 02:44:15;;;;;;;4.15;1.60;;;17.70;99.90;;;17.94;100.00;100515.81;5272711;28;20508;-53
2023/08/26 02:46:49;;;;;;;3.05;1.90;;;17.70;99.90;;;17.93;100.00;100523.69;5267185;28;20461;-55
2023/08/26 02:49:21;;;;;;;3.38;1.30;;;17.60;99.90;;;17.88;100.00;100518.44;5285534;28;20169;-52
2023/08/26 02:51:54;;;;;;;2.90;1.55;;;17.60;99.90;;;17.84;100.00;100522.81;5272710;28;20121;-52
2023/08/26 02:54:26;;;;;;;2.60;1.60;;;17.60;99.90;;;17.80;100.00;100525.44;5260236;28;20044;-53
2023/08/26 02:57:00;;;;;;;2.80;1.70;;;17.60;99.90;;;17.74;100.00;100528.09;5247542;28;20072;-53
2023/08/26 02:59:32;;;;;;;3.58;1.77;;;17.50;99.90;;;17.66;100.00;100540.34;5281935;28;20043;-52
2023/08/26 03:02:07;;;;;;;4.00;2.03;;;17.40;99.90;;;17.62;100.00;100537.72;5252240;28;20061;-53
2023/08/26 03:04:43;;;;;;;4.85;2.30;;;17.40;99.90;;;17.54;100.00;100535.91;5257817;28;20043;-52
2023/08/26 03:07:15;;;;;;;4.53;2.20;;;17.30;99.90;;;17.50;100.00;100531.53;5266978;28;20043;-53
2023/08/26 03:09:47;;;;;;;3.08;1.65;;;17.30;99.90;;;17.44;100.00;100521.84;5258006;28;20052;-53
2023/08/26 03:12:23;;;;;;;4.60;1.83;;;17.20;99.90;;;17.44;100.00;100536.78;5275960;28;20043;-52
2023/08/26 03:14:55;;;;;;;5.22;2.08;;;17.20;99.90;;;17.44;100.00;100527.13;5273701;28;20062;-52
2023/08/26 03:17:27;;;;;;;5.28;2.10;;;17.20;99.90;;;17.42;100.00;100528.88;5271873;28;20039;-52
2023/08/26 03:20:00;;;;;;;3.33;1.90;;;17.20;99.90;;;17.42;100.00;100538.53;5255404;28;20058;-51
2023/08/26 03:22:32;;;;;;;6.22;2.10;;;17.20;99.90;;;17.40;100.00;100529.72;5271422;28;20051;-55
2023/08/26 03:25:06;;;;;;;4.32;1.70;;;17.20;99.90;;;17.37;100.00;100535.88;5279399;28;20063;-54
2023/08/26 03:27:39;;;;;;;2.60;1.73;;;17.10;99.90;;;17.35;100.00;100545.53;5263981;28;20067;-52
2023/08/26 03:30:13;;;;;;;3.13;1.52;;;17.10;99.90;;;17.32;100.00;100540.25;5269857;28;20468;-54
2023/08/26 03:32:49;;;;;;;3.92;1.52;;;17.10;99.90;;;17.30;100.00;100545.53;5262978;28;20052;-55
2023/08/26 03:35:23;;;;;;;2.17;1.35;;;17.10;99.90;;;17.29;100.00;100545.53;5260287;28;20139;-53
2023/08/26 03:37:56;;;;;;;3.17;1.40;;;17.10;99.90;;;17.27;100.00;100544.63;5249917;28;20050;-52
2023/08/26 03:40:28;;;;;;;1.92;1.23;;;17.00;99.90;;;17.26;100.00;100543.75;5283730;28;20133;-52
2023/08/26 03:43:04;;;;;;;2.95;1.55;;;17.00;99.90;;;17.22;100.00;100546.38;5246024;28;20504;-55
2023/08/26 03:45:36;;;;;;;1.55;1.17;;;17.00;99.90;;;17.19;100.00;100539.31;5255039;28;20054;-52
2023/08/26 03:48:08;;;;;;;2.40;1.20;;;17.00;99.90;;;17.17;100.00;100553.38;5259022;28;20042;-52
2023/08/26 03:50:51;;;;;;;1.60;0.90;;;16.90;99.90;;;17.15;100.00;100555.09;5266710;28;20044;-53
2023/08/26 03:53:24;;;;;;;2.50;1.50;;;16.90;99.90;;;17.13;100.00;100563.00;5258565;28;20040;-52
2023/08/26 03:55:56;;;;;;;1.98;1.20;;;16.90;99.90;;;17.09;100.00;100562.13;5250342;28;20402;-52
2023/08/26 03:58:33;;;;;;;2.47;1.33;;;16.90;99.90;;;17.08;100.00;100563.00;5259379;28;20063;-51
2023/08/26 04:01:05;;;;;;;1.70;1.10;;;16.90;99.90;;;17.07;100.00;100566.50;5254314;28;20047;-55
2023/08/26 04:03:38;;;;;;;2.63;1.20;;;16.80;99.90;;;17.08;100.00;100564.72;5262671;28;20428;-54
2023/08/26 04:06:10;;;;;;;1.92;0.93;;;16.80;99.90;;;17.05;100.00;100567.38;5254815;28;20051;-52
2023/08/26 04:08:43;;;;;;;2.78;1.30;;;16.80;99.90;;;17.05;100.00;100565.59;5254287;28;20042;-51
2023/08/26 04:11:17;;;;;;;1.20;0.98;;;16.80;99.90;;;17.03;100.00;100572.63;5245848;28;20101;-55
2023/08/26 04:13:52;;;;;;;2.45;1.10;;;16.80;99.90;;;17.02;100.00;100570.00;5256386;28;20068;-56
2023/08/26 04:16:24;;;;;;;3.42;1.23;;;16.80;99.90;;;16.99;100.00;100577.88;5266993;28;20492;-56
2023/08/26 04:18:57;;;;;;;1.48;1.10;;;16.80;99.90;;;16.97;100.00;100575.22;5246731;28;20051;-54
2023/08/26 04:21:29;;;;;;;2.35;1.20;;;16.80;99.90;;;16.95;100.00;100583.97;5249123;28;20048;-53
2023/08/26 04:24:02;;;;;;;2.30;1.05;;;16.70;99.90;;;16.94;100.00;100583.09;5262135;28;20061;-52
2023/08/26 04:26:37;;;;;;;2.90;1.30;;;16.70;99.90;;;16.92;100.00;100587.47;5271013;28;20127;-52
2023/08/26 04:29:11;;;;;;;2.92;1.45;;;16.70;99.90;;;16.87;100.00;100583.94;5254577;28;20047;-53
2023/08/26 04:31:43;;;;;;;1.50;1.00;;;16.70;99.90;;;16.84;100.00;100586.56;5272972;28;20101;-52
2023/08/26 04:34:16;;;;;;;2.05;1.20;;;16.60;99.90;;;16.79;100.00;100580.38;5253191;28;20239;-52
2023/08/26 04:36:51;;;;;;;1.60;1.00;;;16.60;99.90;;;16.74;100.00;100574.22;5253674;28;20047;-52
2023/08/26 04:39:23;;;;;;;1.48;1.10;;;16.50;99.90;;;16.68;100.00;100568.88;5256673;28;20055;-52
2023/08/26 04:41:56;;;;;;;1.98;1.00;;;16.50;99.90;;;16.66;100.00;100591.66;5247696;28;20092;-53
2023/08/26 04:44:30;;;;;;;1.60;0.98;;;16.40;99.90;;;16.65;100.00;100589.91;5267934;28;20535;-52
2023/08/26 04:47:03;;;;;;;2.17;1.02;;;16.40;99.90;;;16.63;100.00;100597.81;5282629;28;20042;-53
2023/08/26 04:49:36;;;;;;;2.15;1.20;;;16.40;99.90;;;16.65;100.00;100595.19;5275912;28;20400;-53
2023/08/26 04:52:10;;;;;;;1.45;0.98;;;16.40;99.90;;;16.65;100.00;100590.78;5270348;28;20048;-52
2023/08/26 04:54:45;;;;;;;1.30;0.80;;;16.40;99.90;;;16.64;100.00;100593.44;5262908;28;20116;-52
2023/08/26 04:57:18;;;;;;;1.67;1.15;;;16.40;99.90;;;16.65;100.00;100600.44;5284714;28;20035;-56
2023/08/26 04:59:52;;;;;;;1.95;1.20;;;16.40;99.90;;;16.66;100.00;100599.56;5266132;28;20044;-51
2023/08/26 05:02:25;;;;;;;2.03;1.02;;;16.40;99.90;;;16.67;100.00;100609.22;5250900;28;20048;-53
2023/08/26 05:04:58;;;;;;;2.72;1.23;;;16.40;99.90;;;16.66;100.00;100602.19;5263832;28;20420;-51
2023/08/26 05:07:32;;;;;;;0.82;0.70;;;16.40;99.90;;;16.70;100.00;100609.28;5283355;28;20063;-52
2023/08/26 05:10:07;;;;;;;1.98;1.08;;;16.50;99.90;;;16.73;100.00;100606.66;5270068;28;20076;-53
2023/08/26 05:12:42;;;;;;;1.33;1.00;;;16.50;99.90;;;16.74;100.00;100611.06;5253521;28;20050;-53
2023/08/26 05:15:16;;;;;;;1.23;1.10;;;16.50;99.90;;;16.77;100.00;100617.22;5253145;28;20048;-55
2023/08/26 05:17:49;;;;;;;1.63;1.00;;;16.60;99.90;;;16.90;100.00;100617.31;5259233;28;20040;-54
2023/08/26 05:20:21;;;;;;;1.63;0.90;;;16.70;99.90;;;17.08;100.00;100612.13;5253314;28;20044;-53
2023/08/26 05:22:53;;;;;;;2.60;1.48;;;16.90;99.90;;;17.42;100.00;100623.75;5280286;28;20456;-52
2023/08/26 05:25:26;;;;;;;3.17;1.20;;;17.20;99.90;;;17.73;100.00;100613.31;5265780;28;20048;-53
2023/08/26 05:27:58;;;;;;;2.17;1.10;;;17.50;99.90;;;17.95;100.00;100609.88;5274397;28;20044;-52
2023/08/26 05:30:34;;;;;;;2.45;1.00;;;17.70;99.90;;;18.15;100.00;100623.09;5259627;28;20092;-52
2023/08/26 05:33:09;;;;;;;1.15;0.85;;;17.90;99.90;;;18.31;100.00;100613.41;5257032;28;20044;-52
2023/08/26 05:35:43;;;;;;;2.03;1.00;;;18.10;99.90;;;18.44;100.00;100615.16;5265419;28;20059;-52
2023/08/26 05:38:16;;;;;;;1.77;1.02;;;18.20;99.90;;;18.60;100.00;100614.28;5257109;28;20044;-53
2023/08/26 05:40:49;;;;;;;2.05;1.00;;;18.30;99.90;;;18.75;100.00;100620.47;5248506;28;20493;-56
2023/08/26 05:43:22;;;;;;;2.63;1.00;;;18.50;99.90;;;18.88;100.00;100614.28;5265298;28;20067;-52
2023/08/26 05:45:58;;;;;;;1.77;1.00;;;18.60;99.90;;;18.98;100.00;100621.31;5249532;28;20386;-50
2023/08/26 05:48:30;;;;;;;1.40;0.75;;;18.70;99.90;;;19.04;100.00;100613.38;5266247;28;20453;-51
2023/08/26 05:51:03;;;;;;;1.23;0.82;;;18.70;99.90;;;19.11;100.00;100609.84;5261191;28;20412;-49
2023/08/26 05:53:36;;;;;;;1.20;1.10;;;18.80;99.90;;;19.28;100.00;100622.09;5271001;28;20065;-51
2023/08/26 05:56:08;;;;;;;3.65;1.00;;;19.00;99.90;;;19.49;98.93;100619.34;5266473;28;20047;-51
2023/08/26 05:58:41;;;;;;;1.15;0.82;;;19.20;99.90;;;19.70;97.98;100618.44;5266091;28;20069;-48
2023/08/26 06:01:14;;;;;;;1.52;1.17;;;19.30;99.90;;;19.79;97.48;100621.88;5261594;28;20048;-49
2023/08/26 06:03:47;;;;;;;1.27;0.98;;;19.50;99.90;;;19.74;97.60;100626.31;5259922;28;20047;-48
2023/08/26 06:06:19;;;;;;;2.92;0.93;;;19.40;99.90;;;19.71;98.18;100633.41;5270300;28;20067;-49
2023/08/26 06:08:52;;;;;;;1.17;0.80;;;19.50;99.90;;;19.72;99.58;100629.88;5276973;28;20101;-50
2023/08/26 06:11:24;;;;;;;2.58;0.88;;;19.40;99.90;;;19.66;99.16;100636.06;5285054;28;20044;-50
2023/08/26 06:13:58;;;;;;;1.63;1.20;;;19.40;99.90;;;19.64;99.80;100629.91;5274944;28;20055;-50
2023/08/26 06:16:32;;;;;;;0.77;0.77;;;19.40;99.90;;;19.66;100.00;100632.53;5258752;28;20047;-49
2023/08/26 06:19:08;;;;;;;2.00;1.00;;;19.40;99.90;;;19.66;100.00;100630.78;5250682;28;20043;-52
2023/08/26 06:21:42;;;;;;;2.95;0.85;;;19.40;99.90;;;19.72;100.00;100641.31;5264133;28;20052;-49
2023/08/26 06:24:16;;;;;;;1.98;0.73;;;19.40;99.90;;;19.78;100.00;100645.72;5256678;28;20055;-52
2023/08/26 06:26:48;;;;;;;1.52;0.90;;;19.40;99.90;;;19.84;100.00;100644.81;5253579;28;20044;-51
2023/08/26 06:29:24;;;;;;;1.25;0.65;;;19.50;99.90;;;19.91;100.00;100638.59;5268285;28;20047;-51
2023/08/26 06:31:58;;;;;;;2.17;0.90;;;19.50;99.90;;;19.93;100.00;100640.31;5259227;28;20067;-50
2023/08/26 06:34:34;;;;;;;0.93;0.77;;;19.60;99.90;;;20.03;100.00;100646.44;5269984;28;20046;-49
2023/08/26 06:37:07;;;;;;;3.35;0.90;;;19.60;99.90;;;20.09;100.00;100633.19;5272892;28;20037;-49
2023/08/26 06:39:39;;;;;;;4.47;1.00;;;19.70;99.90;;;20.24;100.00;100646.31;5247597;28;20048;-50
2023/08/26 06:42:11;;;;;;;1.02;0.82;;;19.80;99.90;;;20.40;100.00;100632.94;5259290;28;20043;-50
2023/08/26 06:44:59;;;;;;;1.45;0.90;;;20.00;99.90;;;20.52;100.00;100641.69;5260365;28;20044;-51
2023/08/26 06:47:33;;;;;;;1.05;0.88;;;20.10;99.90;;;20.62;100.00;100637.22;5262086;28;20040;-50
2023/08/26 06:50:08;;;;;;;1.45;0.63;;;20.10;99.90;;;20.71;100.00;100629.16;5259044;28;20116;-51
2023/08/26 06:52:40;;;;;;;2.15;0.60;;;20.20;99.90;;;20.82;98.81;100634.38;5260962;28;20058;-50
2023/08/26 06:55:17;;;;;;;2.00;0.80;;;20.40;99.90;;;20.94;97.73;100626.31;5268241;28;20040;-50
2023/08/26 06:57:49;;;;;;;0.68;0.68;;;20.50;99.90;;;21.06;97.64;100630.56;5260039;28;20048;-51
2023/08/26 07:00:22;;;;;;;1.15;0.70;;;20.50;99.90;;;21.22;97.16;100628.66;5280415;28;20040;-50
2023/08/26 07:02:55;;;;;;;1.50;0.90;;;20.70;99.90;;;21.34;95.86;100631.19;5256918;28;20051;-51
2023/08/26 07:05:28;;;;;;;2.20;0.60;;;20.80;99.90;;;21.42;95.10;100636.41;5279444;28;20589;-49
2023/08/26 07:08:00;;;;;;;1.02;0.63;;;20.80;99.90;;;21.53;94.51;100629.19;5264032;28;20048;-51
2023/08/26 07:10:33;;;;;;;2.17;0.80;;;20.90;99.90;;;21.60;93.40;100625.56;5262265;28;20500;-50
2023/08/26 07:13:08;;;;;;;2.83;1.00;;;21.00;99.90;;;21.73;93.55;100624.50;5265693;28;20455;-50
2023/08/26 07:15:41;;;;;;;1.00;0.47;;;21.10;99.90;;;21.83;92.71;100628.78;5255067;28;20048;-50
2023/08/26 07:18:15;;;;;;;0.82;0.73;;;21.20;99.90;;;21.97;92.24;100619.72;5251232;28;20035;-50
2023/08/26 07:20:48;;;;;;;1.52;0.70;;;21.30;99.90;;;22.09;91.39;100624.91;5264011;28;20145;-50
2023/08/26 07:23:20;;;;;;;1.83;0.60;;;21.50;99.90;;;22.18;90.91;100623.00;5254283;28;20504;-51
2023/08/26 07:25:52;;;;;;;2.05;0.80;;;21.50;99.90;;;22.27;90.34;100614.00;5250719;28;20047;-51
2023/08/26 07:28:25;;;;;;;3.58;0.73;;;21.60;99.80;;;22.36;90.05;100613.84;5260457;28;20416;-50
2023/08/26 07:31:03;;;;;;;0.73;0.63;;;21.70;99.80;;;22.46;89.73;100610.13;5266141;28;20134;-50
2023/08/26 07:33:37;;;;;;;2.10;0.80;;;21.70;99.50;;;22.61;89.62;100614.31;5270110;28;20104;-51
2023/08/26 07:36:10;;;;;;;1.90;0.63;;;21.90;99.60;;;22.74;89.11;100605.22;5272363;28;20059;-50
2023/08/26 07:38:42;;;;;;;0.80;0.70;;;22.00;99.30;;;22.93;89.21;100605.78;5246202;28;20056;-51
2023/08/26 07:41:15;;;;;;;2.30;0.63;;;22.20;99.40;;;23.08;87.71;100601.06;5245028;28;20044;-49
2023/08/26 07:43:47;;;;;;;1.00;0.70;;;22.30;98.80;;;23.21;86.91;100613.22;5254657;28;20055;-50
2023/08/26 07:46:22;;;;;;;0.63;0.52;;;22.40;98.60;;;23.33;86.14;100610.31;5261310;28;20071;-51
2023/08/26 07:48:59;;;;;;;1.23;0.60;;;22.50;98.20;;;23.46;85.86;100614.47;5249499;28;20801;-51
2023/08/26 07:51:32;;;;;;;2.03;0.63;;;22.60;98.10;;;23.59;84.50;100606.22;5254349;28;20040;-50
2023/08/26 07:54:05;;;;;;;2.10;0.70;;;22.70;97.50;;;23.70;83.33;100612.22;5258415;28;20527;-51
2023/08/26 07:56:37;;;;;;;1.23;0.60;;;22.80;97.20;;;23.77;82.72;100609.41;5271135;28;20058;-50
2023/08/26 07:59:10;;;;;;;1.38;0.68;;;22.90;96.80;;;23.92;82.93;100600.19;5254158;28;20166;-50
2023/08/26 08:01:43;;;;;;;0.90;0.50;;;22.90;96.80;;;24.10;82.17;100594.44;5255849;28;20142;-50
2023/08/26 08:04:16;;;;;;;0.60;0.60;;;23.10;96.80;;;24.11;79.79;100616.59;5259066;28;20140;-50
2023/08/26 08:06:49;;;;;;;1.23;0.63;;;23.10;95.70;;;24.09;80.23;100613.97;5262116;28;20040;-50
2023/08/26 08:09:22;;;;;;;0.95;0.50;;;23.00;95.60;;;24.20;80.01;100610.19;5262878;28;20044;-50
2023/08/26 08:11:54;;;;;;;1.73;0.63;;;23.00;95.50;;;24.39;80.23;100611.53;5255442;28;20047;-50
2023/08/26 08:14:27;;;;;;;1.40;0.55;;;23.10;95.70;;;24.74;79.49;100604.41;5259264;28;20713;-50
2023/08/26 08:16:59;;;;;;;1.33;0.70;;;23.30;95.60;;;25.28;78.45;100620.72;5263518;28;20040;-50
2023/08/26 08:19:39;;;;;;;1.00;0.60;;;23.50;95.40;;;26.03;75.91;100610.47;5267336;28;20138;-51
2023/08/26 08:22:11;;;;;;;1.92;0.70;;;23.80;94.90;;;26.73;75.77;100608.16;5255616;28;20049;-51
2023/08/26 08:24:44;;;;;;;1.10;0.50;;;24.20;95.00;;;27.50;74.26;100619.63;5257509;28;20097;-51
2023/08/26 08:27:16;;;;;;;1.70;0.50;;;24.60;94.70;;;28.36;70.04;100624.31;5257516;28;20036;-51
2023/08/26 08:29:49;;;;;;;1.35;0.50;;;25.10;93.00;;;29.19;67.70;100621.66;5276321;28;20051;-51
2023/08/26 08:32:22;;;;;;;1.08;0.52;;;25.50;92.00;;;30.17;65.24;100628.72;5257637;28;20400;-54
2023/08/26 08:34:56;;;;;;;1.27;0.47;;;26.20;91.10;;;31.20;63.00;100623.47;5257710;28;20070;-50
2023/08/26 08:37:32;;;;;;;0.65;0.45;;;27.00;90.20;;;32.26;60.13;100623.88;5267238;28;20054;-51
2023/08/26 08:40:06;;;;;;;0.50;0.40;;;28.00;85.50;;;33.16;56.89;100624.78;5263677;28;20046;-50
2023/08/26 08:42:42;;;;;;;1.10;0.47;;;29.00;79.90;;;33.68;54.94;100616.09;5261244;28;20044;-51
2023/08/26 08:45:18;;;;;;;1.60;0.45;;;29.60;75.40;;;34.19;52.89;100618.25;5266422;28;20500;-51
2023/08/26 08:47:53;;;;;;;1.42;0.68;;;30.20;71.30;;;34.28;52.88;100618.47;5251584;28;20051;-51
2023/08/26 08:50:28;;;;;;;0.73;0.40;;;30.50;69.90;;;34.42;52.65;100620.28;5255017;28;20051;-51
2023/08/26 08:53:00;;;;;;;1.45;0.45;;;30.70;68.20;;;34.62;51.05;100624.34;5277102;28;20133;-51
2023/08/26 08:55:34;;;;;;;0.88;0.60;;;30.90;66.10;;;34.80;50.77;100612.25;5269932;28;20086;-51
2023/08/26 08:58:08;;;;;;;1.75;0.60;;;31.10;65.20;;;35.04;50.13;100612.44;5272640;28;20043;-51
2023/08/26 09:00:41;;;;;;;2.35;0.40;;;31.30;64.10;;;34.91;50.82;100610.66;5287547;22;20051;-71
2023/08/26 09:07:03;;;;;;;1.13;0.50;;;31.10;64.70;;;34.45;50.54;100609.28;6019748;23;20058;-77
2023/08/26 09:09:37;;;;;;;1.50;0.47;;;31.20;63.70;;;34.22;50.66;100610.78;5175817;28;20042;-79
2023/08/26 09:13:55;;;;;;;0.87;0.47;;;31.00;61.80;;;33.73;49.75;100608.59;5281743;27;20404;-51
2023/08/26 09:16:34;;;;;;;0.77;0.40;;;31.10;61.20;;;32.90;51.58;100590.41;5259432;28;20551;-52
2023/08/26 09:19:08;;;;;;;0.95;0.40;;;30.60;61.80;;;32.35;52.84;100597.28;5260066;28;20049;-49
2023/08/26 09:21:42;;;;;;;1.23;0.40;;;30.40;62.70;;;31.78;53.90;100596.06;5259368;28;20241;-50
2023/08/26 09:24:15;;;;;;;1.02;0.52;;;30.10;63.00;;;31.11;54.20;100588.97;5259354;28;20143;-50
2023/08/26 09:26:59;;;;;;;1.27;0.40;;;29.60;62.90;;;30.39;54.91;100590.88;5259436;28;20045;-50
2023/08/26 09:29:33;;;;;;;1.08;0.50;;;29.20;63.00;;;29.88;56.43;100591.63;5259597;28;20052;-52
2023/08/26 09:32:09;;;;;;;1.55;0.50;;;28.80;64.00;;;29.49;57.88;100589.00;5259555;28;20412;-50
2023/08/26 09:34:41;;;;;;;1.00;0.60;;;28.40;65.40;;;29.13;59.56;100589.72;5259282;28;20138;-50
2023/08/26 09:37:14;;;;;;;0.43;0.32;;;28.10;67.10;;;28.89;60.23;100583.63;5259973;28;20059;-50
2023/08/26 09:39:47;;;;;;;1.15;0.70;;;27.80;67.30;;;28.73;59.78;100585.22;5259533;28;20091;-50
2023/08/26 09:42:20;;;;;;;2.33;0.63;;;27.70;67.40;;;28.50;58.74;100581.75;5259290;28;20048;-50
2023/08/26 09:44:57;;;;;;;0.50;0.50;;;27.50;66.20;;;28.30;58.88;100585.25;5259333;28;20052;-51
2023/08/26 09:47:30;;;;;;;0.70;0.50;;;27.30;66.10;;;28.22;60.05;100583.78;5259260;28;20263;-51
2023/08/26 09:50:03;;;;;;;0.85;0.45;;;27.20;67.20;;;28.20;60.50;100586.53;5258288;28;20048;-51
2023/08/26 09:52:46;;;;;;;1.23;0.60;;;27.20;67.90;;;28.09;60.65;100584.28;5258316;28;20045;-49
2023/08/26 09:55:20;;;;;;;17.52;9.40;;;27.10;67.80;;;28.01;63.84;100580.19;5259374;28;20102;-49
2023/08/26 09:57:53;;;;;;;10.63;5.05;;;27.00;70.30;;;27.92;63.06;100578.78;5258439;28;20076;-49
2023/08/26 10:00:31;;;;;;;11.00;5.63;;;26.90;70.20;;;27.97;63.39;100600.00;5258968;28;20384;-50
2023/08/26 10:03:06;;;;;;;7.32;3.85;;;26.90;70.70;;;27.95;60.86;100586.66;5258700;28;20056;-49
2023/08/26 10:05:41;;;;;;;7.15;3.63;;;26.90;68.40;;;28.01;60.89;100585.56;5258826;28;20404;-50
2023/08/26 10:08:13;;;;;;;5.32;2.58;;;26.90;68.30;;;27.96;60.07;100592.91;5258637;28;20509;-50
2023/08/26 10:10:53;;;;;;;13.85;6.68;;;26.90;67.80;;;27.92;60.36;100586.81;5258729;28;20048;-50
2023/08/26 10:13:29;;;;;;;6.25;3.13;;;26.90;67.80;;;27.87;61.21;100594.16;5252099;28;20047;-49
2023/08/26 10:16:07;;;;;;;5.18;2.53;;;26.80;68.60;;;27.88;60.26;100595.88;5258440;28;20060;-49
2023/08/26 10:18:44;;;;;;;6.45;3.35;;;26.80;68.00;;;27.57;59.79;100590.81;5258518;28;20048;-49
2023/08/26 10:21:17;;;;;;;18.40;8.38;;;26.70;67.00;;;27.24;60.63;100588.50;5258213;28;20044;-49
2023/08/26 10:23:50;;;;;;;12.05;6.68;;;26.50;67.60;;;26.98;62.59;100585.88;5252407;28;20041;-51
2023/08/26 10:26:22;;;;;;;30.02;15.57;;;26.20;69.10;;;26.78;65.02;100583.91;5244350;28;20076;-51
2023/08/26 10:28:56;;;;;;;35.33;18.27;;;26.00;70.80;;;26.53;68.03;100586.56;5244204;28;20417;-49
2023/08/26 10:31:36;;;;;;;29.58;14.93;;;25.80;73.60;;;26.45;68.07;100581.50;5243964;28;20448;-50
2023/08/26 10:34:16;;;;;;;24.58;12.60;;;25.70;74.00;;;26.37;68.92;100582.66;5244285;28;20286;-50
2023/08/26 10:36:49;;;;;;;15.82;8.05;;;25.60;74.80;;;26.14;68.47;100580.72;5244088;28;20119;-51
2023/08/26 10:39:22;;;;;;;21.17;8.27;;;25.40;74.50;;;25.94;69.05;100578.72;5245163;28;20431;-50